Airfield :
LOGIN :

Register | Disclaimer

   EN    FR    IT 

 










Legend :    VFR   Marginal VFR   IFR   Intensive IFR   Very Intensive IFR
Visi :
Ceiling :
>= 8 km
>= 3000ft
5 to 8 km
1000 to 3000 ft
1500m to 5 km
500 to 1000 ft
800 to 1500m
200 to 500 ft
< 800m
< 200 ft
Symbols :   Thunderstorms  Fog  Heavy snow  Heavy precipitations  Wind > 20 kt
SIGMETs :     Misc.  Thunderstorms  Icing  Turbulence  Mountain Waves  Volcanic Ashes






- Airport Elevation : 584 ft


LFPV - Villacoublay Vélizy

CURRENT METAR :
  • 180530Z AUTO 23014KT 200V260 9999 -RA FEW017/// SCT054/// BKN066/// ///CB 12/10 Q1006 TEMPO 22025G35KT 4000 SHRA BKN010TCU

EXPIRED METARs :
  • 180500Z AUTO 22014G26KT 180V250 6000 2200 +RA BKN013/// BKN018/// OVC052/// ///CB 13/11 Q1006 TEMPO 4000 SHRA
  • 180430Z AUTO 21014KT 170V230 9999 BKN015/// BKN020/// BKN026/// ///CB 13/11 Q1006 TEMPO 4000 SHRA BKN010TCU
  • 180400Z AUTO 20013KT 170V240 9999 BKN014 BKN021 OVC028 13/11 Q1006 TEMPO 4000 SHRA BKN010TCU
  • 180330Z AUTO 21011KT 180V250 9999 BKN013 BKN018 OVC030 13/11 Q1006 TEMPO 4000 SHRA BKN010TCU
  • 180300Z AUTO 20012KT 170V250 9999 OVC011 13/11 Q1007 TEMPO 4000 SHRA BKN010TCU

TAF AMD TAF LFPV
Valid from the 18 at 05:00 until the 19 at 03:00 UTC


180507Z 1805/1903 20010KT 9999 BKN014
TEMPO 1805/1808 22025G35KT 4000 SHRA BKN010TCU
BECMG 1808/1810 BKN020
FM181200 22010G25KT CAVOK
BECMG 1900/1902 4000 RA BKN003 BKN012



MET'MAP, your aeronautical weather chart ! - Copyright ORBIFLY December 2007 - Disclaimer

ORBIFLY MET'MAP TEAM :

Programming & Development : Alexandra Zaïnal
Concept & Development : Baudouin d'Aumeries
Co-Development & Prog : Marc-Olivier Méhu
Technical & hardware support : Manuel Goepfert

Contact : metmap@orbifly.com




SOURCES & CREDITS :

   NOAA